Time;durP1;ratioP1;P1;durP2;ratioP2;P2;SDS_P1;SDS_P2;PMS_P1;PMS_P2;Temp;Humidity;BMP_temperature;BMP_pressure;BME280_temperature;BME280_humidity;BME280_pressure;Samples;Min_cycle;Max_cycle;Signal;HPM_P1;HPM_P2
2023/09/16 00:01:10;;;;;;;11.60;7.88;;;12.60;99.90;;;;;;5055459;28;20369;-86
2023/09/16 00:03:36;;;;;;;9.82;7.90;;;12.60;99.90;;;;;;5056439;28;20052;-85
2023/09/16 00:06:04;;;;;;;5.93;5.03;;;12.50;99.90;;;;;;5061033;28;20490;-86
2023/09/16 00:08:33;;;;;;;4.50;3.92;;;12.40;99.90;;;;;;5056991;28;20366;-86
2023/09/16 00:11:00;;;;;;;37.58;7.68;;;12.30;99.90;;;;;;5057323;28;20044;-85
2023/09/16 00:13:26;;;;;;;7.53;5.28;;;12.40;99.90;;;;;;5058279;28;20097;-85
2023/09/16 00:15:52;;;;;;;6.00;4.85;;;12.20;99.90;;;;;;5055824;28;20036;-86
2023/09/16 00:18:18;;;;;;;6.72;6.13;;;12.20;99.90;;;;;;5073314;28;20067;-86
2023/09/16 00:20:45;;;;;;;6.40;5.50;;;12.20;99.90;;;;;;5072336;28;20297;-85
2023/09/16 00:23:10;;;;;;;6.97;6.35;;;12.20;99.90;;;;;;5058435;28;20051;-85
2023/09/16 00:25:36;;;;;;;6.78;6.07;;;12.10;99.90;;;;;;5058839;28;20040;-85
2023/09/16 00:28:06;;;;;;;167.27;11.75;;;12.10;99.90;;;;;;5071966;28;20271;-86
2023/09/16 00:30:32;;;;;;;5.38;4.88;;;12.00;99.90;;;;;;5056446;28;20535;-85
2023/09/16 00:32:58;;;;;;;14.35;5.55;;;12.00;99.90;;;;;;5066590;28;20364;-86
2023/09/16 00:35:24;;;;;;;7.07;6.38;;;12.00;99.90;;;;;;5062978;28;20464;-86
2023/09/16 00:37:49;;;;;;;8.43;7.28;;;12.00;99.90;;;;;;5059976;28;20123;-86
2023/09/16 00:40:15;;;;;;;8.90;8.00;;;12.10;99.90;;;;;;5059529;28;20040;-85
2023/09/16 00:42:41;;;;;;;9.02;7.97;;;12.10;99.90;;;;;;5070578;28;20063;-86
2023/09/16 00:45:10;;;;;;;8.55;7.35;;;12.10;99.90;;;;;;5099310;27;20435;-85
2023/09/16 00:47:37;;;;;;;9.77;8.48;;;12.10;99.90;;;;;;5090300;28;20040;-85
2023/09/16 00:50:07;;;;;;;9.25;8.27;;;12.10;99.90;;;;;;5071519;28;20046;-85
2023/09/16 00:52:34;;;;;;;10.70;9.60;;;12.10;99.90;;;;;;5092406;28;20077;-85
2023/09/16 00:55:01;;;;;;;10.40;8.68;;;12.10;99.90;;;;;;5081384;28;20047;-84
2023/09/16 00:57:27;;;;;;;10.55;9.50;;;12.10;99.90;;;;;;5095928;28;20581;-84
2023/09/16 00:59:53;;;;;;;10.80;9.70;;;12.00;99.90;;;;;;5077914;28;20050;-85
2023/09/16 01:02:19;;;;;;;15.77;11.88;;;12.10;99.90;;;;;;5079010;28;20356;-85
2023/09/16 01:04:46;;;;;;;9.27;7.50;;;12.10;99.90;;;;;;5075641;28;20031;-85
2023/09/16 01:07:14;;;;;;;9.48;7.32;;;12.00;99.90;;;;;;5080207;28;20068;-85
2023/09/16 01:09:41;;;;;;;12.77;10.73;;;11.90;99.90;;;;;;5081566;28;20146;-84
2023/09/16 01:12:10;;;;;;;12.25;10.40;;;12.00;99.90;;;;;;5076642;28;20476;-85
2023/09/16 01:14:37;;;;;;;10.75;9.02;;;12.00;99.90;;;;;;5094497;28;20215;-84
2023/09/16 01:17:08;;;;;;;13.23;9.80;;;11.90;99.90;;;;;;5096158;28;20115;-85
2023/09/16 01:19:42;;;;;;;10.85;9.15;;;12.00;99.90;;;;;;5073676;28;20043;-85
2023/09/16 01:22:09;;;;;;;83.10;6.97;;;11.90;99.90;;;;;;5094046;28;20039;-85
2023/09/16 01:24:35;;;;;;;6.78;6.07;;;11.70;99.90;;;;;;5072387;28;20687;-85
2023/09/16 01:27:01;;;;;;;9.95;8.90;;;11.70;99.90;;;;;;5085696;28;20088;-85
2023/09/16 01:29:28;;;;;;;11.02;9.93;;;11.70;99.90;;;;;;5082352;28;20039;-85
2023/09/16 01:31:58;;;;;;;10.75;8.82;;;11.80;99.90;;;;;;5078680;28;20043;-85
2023/09/16 01:34:37;;;;;;;11.65;10.45;;;11.70;99.90;;;;;;5080328;28;20488;-85
2023/09/16 01:37:06;;;;;;;12.50;11.10;;;11.70;99.90;;;;;;5074614;28;20036;-85
2023/09/16 01:39:32;;;;;;;12.25;9.77;;;11.80;99.90;;;;;;5080768;28;20457;-85
2023/09/16 01:42:00;;;;;;;12.77;11.43;;;11.70;99.90;;;;;;5093128;28;20045;-85
2023/09/16 01:44:26;;;;;;;11.52;10.00;;;11.70;99.90;;;;;;5058340;28;20328;-85
2023/09/16 01:46:56;;;;;;;16.13;11.98;;;11.70;99.90;;;;;;5073930;28;20394;-85
2023/09/16 01:49:22;;;;;;;14.07;11.13;;;11.80;99.90;;;;;;5057369;28;20053;-85
2023/09/16 01:51:48;;;;;;;14.63;13.02;;;11.70;99.90;;;;;;5057374;28;20113;-84
2023/09/16 01:54:14;;;;;;;16.75;12.15;;;11.70;99.90;;;;;;5062340;28;20242;-85
2023/09/16 01:56:39;;;;;;;15.43;11.32;;;11.70;99.90;;;;;;5059321;28;20119;-84
2023/09/16 01:59:05;;;;;;;12.13;10.80;;;11.70;99.90;;;;;;5071358;28;20135;-85
2023/09/16 02:01:31;;;;;;;262.52;18.67;;;11.70;99.90;;;;;;5057211;28;20036;-85
2023/09/16 02:03:56;;;;;;;148.85;12.23;;;11.60;99.90;;;;;;5054934;28;20038;-84
2023/09/16 02:06:22;;;;;;;8.85;7.95;;;11.60;99.90;;;;;;5058042;28;20036;-85
2023/09/16 02:08:48;;;;;;;11.73;10.52;;;11.60;99.90;;;;;;5057412;28;20028;-85
2023/09/16 02:11:13;;;;;;;12.80;11.43;;;11.60;99.90;;;;;;5059168;28;20093;-84
2023/09/16 02:13:39;;;;;;;14.40;11.98;;;11.60;99.90;;;;;;5074441;28;20039;-84
2023/09/16 02:16:05;;;;;;;12.30;10.70;;;11.60;99.90;;;;;;5073003;28;20106;-83
2023/09/16 02:18:31;;;;;;;12.13;9.80;;;11.60;99.90;;;;;;5054077;28;20127;-84
2023/09/16 02:20:57;;;;;;;12.68;10.55;;;11.60;99.90;;;;;;5067163;28;20074;-84
2023/09/16 02:23:22;;;;;;;12.23;10.43;;;11.60;99.90;;;;;;5057767;28;20047;-84
2023/09/16 02:25:48;;;;;;;13.98;11.00;;;11.60;99.90;;;;;;5059949;28;20115;-84
2023/09/16 02:28:14;;;;;;;14.20;10.70;;;11.50;99.90;;;;;;5069854;28;20467;-84
2023/09/16 02:30:40;;;;;;;10.60;9.13;;;11.50;99.90;;;;;;5060900;28;20040;-84
2023/09/16 02:33:05;;;;;;;11.70;9.85;;;11.40;99.90;;;;;;5071256;28;20558;-85
2023/09/16 02:35:31;;;;;;;11.15;9.95;;;11.40;99.90;;;;;;5062629;28;20037;-84
2023/09/16 02:37:58;;;;;;;13.52;11.57;;;11.50;99.90;;;;;;5076223;28;20040;-84
2023/09/16 02:40:25;;;;;;;12.93;11.43;;;11.50;99.90;;;;;;5063882;28;20092;-84
2023/09/16 02:42:50;;;;;;;7.88;7.07;;;11.40;99.90;;;;;;5062422;28;20043;-84
2023/09/16 02:45:16;;;;;;;13.23;11.80;;;11.40;99.90;;;;;;5087067;28;20046;-84
2023/09/16 02:47:41;;;;;;;10.38;9.10;;;11.40;99.90;;;;;;5096054;28;20110;-84
2023/09/16 02:50:08;;;;;;;11.88;9.85;;;11.40;99.90;;;;;;5081951;28;20109;-84
2023/09/16 02:52:33;;;;;;;13.20;10.73;;;11.30;99.90;;;;;;5086487;28;21650;-84
2023/09/16 02:54:59;;;;;;;17.08;13.00;;;11.40;99.90;;;;;;5086449;28;20047;-84
2023/09/16 02:57:24;;;;;;;10.45;9.35;;;11.40;99.90;;;;;;5091130;28;20071;-84
2023/09/16 02:59:52;;;;;;;15.57;13.32;;;11.40;99.90;;;;;;5085059;28;20043;-83
2023/09/16 03:02:17;;;;;;;16.00;14.10;;;11.40;99.90;;;;;;5085377;28;20317;-84
2023/09/16 03:04:43;;;;;;;18.02;14.57;;;11.40;99.90;;;;;;5091815;28;20522;-84
2023/09/16 03:07:10;;;;;;;20.95;13.88;;;11.40;99.90;;;;;;5080535;28;20130;-84
2023/09/16 03:09:35;;;;;;;14.43;11.82;;;11.30;99.90;;;;;;5096207;28;20047;-84
2023/09/16 03:12:01;;;;;;;33.10;13.23;;;11.30;99.90;;;;;;5081407;28;20773;-84
2023/09/16 03:14:27;;;;;;;61.95;16.23;;;11.30;99.90;;;;;;5097156;27;20110;-83
2023/09/16 03:16:55;;;;;;;26.20;16.63;;;11.40;99.90;;;;;;5085483;28;20036;-84
2023/09/16 03:19:21;;;;;;;55.28;18.10;;;11.40;99.90;;;;;;5076134;28;20035;-84
2023/09/16 03:21:47;;;;;;;19.65;16.00;;;11.40;99.90;;;;;;5084162;28;20043;-82
2023/09/16 03:24:12;;;;;;;16.33;14.02;;;11.30;99.90;;;;;;5080610;28;20039;-84
2023/09/16 03:26:38;;;;;;;17.88;15.38;;;11.30;99.90;;;;;;5076170;28;20031;-83
2023/09/16 03:29:04;;;;;;;21.13;16.08;;;11.20;99.90;;;;;;5082991;28;20397;-84
2023/09/16 03:31:29;;;;;;;18.48;16.58;;;11.20;99.90;;;;;;5082816;28;20154;-83
2023/09/16 03:33:55;;;;;;;17.48;15.57;;;11.20;99.90;;;;;;5090335;27;20111;-84
2023/09/16 03:36:22;;;;;;;15.93;14.15;;;11.20;99.90;;;;;;5094997;28;20181;-83
2023/09/16 03:38:49;;;;;;;14.48;12.98;;;11.20;99.90;;;;;;5091530;28;20046;-83
2023/09/16 03:41:16;;;;;;;10.50;9.45;;;11.10;99.90;;;;;;5085238;28;20036;-83
2023/09/16 03:43:42;;;;;;;141.68;16.52;;;11.10;99.90;;;;;;5070720;28;20436;-83
2023/09/16 03:46:10;;;;;;;24.83;8.73;;;11.00;99.90;;;;;;5062315;28;20043;-83
2023/09/16 03:48:38;;;;;;;12.07;9.18;;;11.00;99.90;;;;;;5075858;28;20212;-83
2023/09/16 03:51:07;;;;;;;91.05;12.55;;;10.90;99.90;;;;;;5062559;28;20515;-83
2023/09/16 03:53:34;;;;;;;21.65;10.23;;;11.00;99.90;;;;;;5057681;28;20047;-83
2023/09/16 03:56:03;;;;;;;25.30;10.38;;;10.90;99.90;;;;;;5078309;28;20037;-83
2023/09/16 03:58:28;;;;;;;9.93;9.13;;;10.90;99.90;;;;;;5055705;28;20148;-82
2023/09/16 04:00:54;;;;;;;11.30;10.20;;;10.90;99.90;;;;;;5076998;28;20556;-83
2023/09/16 04:03:20;;;;;;;6.78;6.18;;;10.90;99.90;;;;;;5071108;28;20036;-83
2023/09/16 04:05:46;;;;;;;13.88;6.40;;;10.80;99.90;;;;;;5064690;28;20582;-83
2023/09/16 04:08:11;;;;;;;8.50;7.80;;;10.80;99.90;;;;;;5075040;28;20029;-84
2023/09/16 04:10:37;;;;;;;7.90;7.20;;;10.70;99.90;;;;;;5069310;28;20039;-83
2023/09/16 04:13:03;;;;;;;13.10;9.60;;;10.80;99.90;;;;;;5060896;28;20853;-83
2023/09/16 04:15:29;;;;;;;9.52;8.65;;;10.80;99.90;;;;;;5074897;28;20040;-83
2023/09/16 04:17:54;;;;;;;9.07;8.25;;;10.80;99.90;;;;;;5074766;28;20037;-83
2023/09/16 04:20:20;;;;;;;10.15;9.23;;;10.80;99.90;;;;;;5057647;28;20059;-84
2023/09/16 04:22:46;;;;;;;15.10;13.60;;;10.80;99.90;;;;;;5070155;28;20456;-83
2023/09/16 04:25:12;;;;;;;14.13;12.73;;;10.80;99.90;;;;;;5061284;28;20041;-84
2023/09/16 04:27:38;;;;;;;11.48;10.13;;;10.80;99.90;;;;;;5070314;28;20036;-82
2023/09/16 04:30:05;;;;;;;11.40;10.15;;;10.80;99.90;;;;;;5058074;28;20059;-84
2023/09/16 04:32:30;;;;;;;11.73;10.00;;;10.80;99.90;;;;;;5058808;28;20043;-83
2023/09/16 04:34:59;;;;;;;11.35;9.40;;;10.80;99.90;;;;;;5055459;28;20388;-83
2023/09/16 04:37:25;;;;;;;11.15;9.95;;;10.70;99.90;;;;;;5061451;28;20420;-83
2023/09/16 04:39:51;;;;;;;10.63;9.57;;;10.80;99.90;;;;;;5060734;28;20136;-83
2023/09/16 04:42:16;;;;;;;11.48;9.43;;;10.80;99.90;;;;;;5060225;28;20403;-83
2023/09/16 04:44:42;;;;;;;13.07;11.52;;;10.70;99.90;;;;;;5070553;28;20132;-83
2023/09/16 04:47:09;;;;;;;14.45;12.35;;;10.80;99.90;;;;;;5081939;28;20474;-83
2023/09/16 04:49:35;;;;;;;12.40;5.57;;;10.80;99.90;;;;;;5097104;28;20036;-83
2023/09/16 04:52:01;;;;;;;15.77;7.50;;;10.60;99.90;;;;;;5080108;28;20451;-83
2023/09/16 04:54:26;;;;;;;11.07;9.82;;;10.50;99.90;;;;;;5081332;28;20039;-83
2023/09/16 04:56:52;;;;;;;11.63;9.98;;;10.50;99.90;;;;;;5080093;28;20046;-83
2023/09/16 04:59:18;;;;;;;13.18;10.48;;;10.60;99.90;;;;;;5076904;28;20038;-83
2023/09/16 05:01:44;;;;;;;11.40;10.00;;;10.60;99.90;;;;;;5094973;28;20047;-84
2023/09/16 05:04:10;;;;;;;10.32;9.10;;;10.70;99.90;;;;;;5090194;28;20096;-83
2023/09/16 05:06:36;;;;;;;12.80;11.43;;;10.60;99.90;;;;;;5092072;27;20149;-83
2023/09/16 05:09:01;;;;;;;126.50;11.73;;;10.60;99.90;;;;;;5092618;28;20051;-83
2023/09/16 05:11:30;;;;;;;100.43;13.98;;;10.60;99.90;;;;;;5082470;28;20052;-83
2023/09/16 05:13:55;;;;;;;25.38;10.63;;;10.60;99.90;;;;;;5093636;28;20031;-83
2023/09/16 05:16:21;;;;;;;12.95;10.73;;;10.60;99.90;;;;;;5075348;28;20301;-83
2023/09/16 05:18:48;;;;;;;36.55;13.48;;;10.60;99.90;;;;;;5079726;28;20067;-83
2023/09/16 05:21:14;;;;;;;16.48;12.10;;;10.70;99.90;;;;;;5072992;28;20097;-83
2023/09/16 05:23:39;;;;;;;15.50;13.27;;;10.70;99.90;;;;;;5091939;28;20131;-83
2023/09/16 05:26:05;;;;;;;14.60;12.13;;;10.80;99.90;;;;;;5092308;28;20043;-84
2023/09/16 05:28:31;;;;;;;13.25;11.02;;;10.80;99.90;;;;;;5088996;28;20247;-83
2023/09/16 05:30:57;;;;;;;14.10;11.55;;;10.80;99.90;;;;;;5078226;28;20038;-84
2023/09/16 05:33:26;;;;;;;13.23;11.55;;;10.90;99.90;;;;;;5087447;28;20040;-82
2023/09/16 05:35:55;;;;;;;13.52;11.45;;;10.80;99.90;;;;;;5075186;28;20576;-84
2023/09/16 05:38:21;;;;;;;11.48;10.23;;;10.80;99.90;;;;;;5076817;28;20118;-84
2023/09/16 05:40:47;;;;;;;18.38;12.20;;;10.90;99.90;;;;;;5091995;28;20131;-83
2023/09/16 05:43:12;;;;;;;85.03;12.82;;;10.90;99.90;;;;;;5088884;28;20212;-83
2023/09/16 05:45:41;;;;;;;13.18;8.75;;;10.80;99.90;;;;;;5072390;28;20055;-83
2023/09/16 05:48:07;;;;;;;10.85;9.75;;;10.90;99.90;;;;;;5071129;28;20048;-84
2023/09/16 05:50:33;;;;;;;11.93;10.27;;;10.90;99.90;;;;;;5058769;28;20046;-84
2023/09/16 05:52:58;;;;;;;12.45;11.10;;;11.00;99.90;;;;;;5060403;28;20450;-84
2023/09/16 05:55:24;;;;;;;14.68;11.57;;;11.00;99.90;;;;;;5062043;28;20082;-83
2023/09/16 05:57:50;;;;;;;13.20;11.75;;;11.10;99.90;;;;;;5056225;28;20057;-83
2023/09/16 06:00:16;;;;;;;8.52;7.72;;;11.20;99.90;;;;;;5059936;28;20480;-84
2023/09/16 06:02:42;;;;;;;6.57;5.97;;;11.20;99.90;;;;;;5071046;28;20036;-83
2023/09/16 06:05:09;;;;;;;12.45;11.15;;;11.20;99.90;;;;;;5058298;28;20439;-84
2023/09/16 06:07:41;;;;;;;15.90;12.85;;;11.30;99.90;;;;;;5080578;28;20044;-83
2023/09/16 06:10:08;;;;;;;12.80;11.50;;;11.40;99.90;;;;;;5065319;28;20037;-83
2023/09/16 06:12:34;;;;;;;12.90;11.25;;;11.40;99.90;;;;;;5056436;28;20041;-84
2023/09/16 06:14:59;;;;;;;18.60;15.20;;;11.40;99.90;;;;;;5057999;28;20238;-84
2023/09/16 06:17:25;;;;;;;23.10;16.55;;;11.70;99.90;;;;;;5067330;28;20481;-84
2023/09/16 06:19:57;;;;;;;16.73;14.18;;;11.80;99.90;;;;;;5067629;28;20196;-84
2023/09/16 06:22:23;;;;;;;17.83;14.73;;;11.80;99.90;;;;;;5055618;28;20032;-84
2023/09/16 06:24:51;;;;;;;15.75;14.05;;;11.90;99.90;;;;;;5066240;28;20232;-84
2023/09/16 06:27:17;;;;;;;14.40;12.70;;;12.00;99.90;;;;;;5061658;28;20044;-84
2023/09/16 06:29:43;;;;;;;20.10;16.63;;;12.10;99.90;;;;;;5056752;28;20033;-84
2023/09/16 06:32:12;;;;;;;21.38;17.65;;;12.20;99.90;;;;;;5057903;28;20040;-84
2023/09/16 06:34:37;;;;;;;27.63;20.35;;;12.40;99.90;;;;;;5056240;28;20096;-84
2023/09/16 06:37:05;;;;;;;28.05;21.27;;;12.60;99.90;;;;;;5056378;28;20118;-84
2023/09/16 06:39:32;;;;;;;26.13;20.38;;;12.70;99.90;;;;;;5060237;28;20072;-84
2023/09/16 06:41:58;;;;;;;26.33;21.15;;;12.80;99.90;;;;;;5054556;28;20040;-83
2023/09/16 06:44:23;;;;;;;29.02;22.25;;;12.90;99.90;;;;;;5058342;28;20052;-83
2023/09/16 06:46:49;;;;;;;26.30;21.85;;;13.00;99.90;;;;;;5072161;28;20501;-83
2023/09/16 06:49:17;;;;;;;29.13;22.20;;;13.10;99.90;;;;;;5058126;28;20100;-84
2023/09/16 06:51:45;;;;;;;26.67;21.13;;;13.20;99.90;;;;;;5070982;28;20094;-83
2023/09/16 06:54:11;;;;;;;28.10;21.58;;;13.30;99.90;;;;;;5070717;28;20044;-83
2023/09/16 06:56:36;;;;;;;28.35;21.65;;;13.40;99.90;;;;;;5058816;28;20035;-84
2023/09/16 06:59:02;;;;;;;28.67;22.42;;;13.50;99.90;;;;;;5070243;28;20040;-83
2023/09/16 07:01:28;;;;;;;29.48;22.63;;;13.70;99.90;;;;;;5034148;28;20155;-83
2023/09/16 07:03:54;;;;;;;27.90;22.02;;;13.70;99.90;;;;;;5052422;28;20228;-83
2023/09/16 07:06:19;;;;;;;31.23;23.45;;;13.90;99.90;;;;;;5057027;28;20500;-84
2023/09/16 07:08:45;;;;;;;28.40;22.75;;;14.00;99.90;;;;;;5056196;28;20434;-83
2023/09/16 07:11:14;;;;;;;29.08;23.27;;;14.10;99.90;;;;;;5070435;28;20446;-84
2023/09/16 07:13:41;;;;;;;30.08;22.38;;;14.20;99.90;;;;;;5067692;28;20175;-84
2023/09/16 07:16:06;;;;;;;29.65;22.80;;;14.30;99.90;;;;;;5071376;28;20059;-83
2023/09/16 07:18:32;;;;;;;28.90;22.30;;;14.40;99.90;;;;;;5071409;28;20105;-83
2023/09/16 07:20:58;;;;;;;28.50;21.63;;;14.50;99.90;;;;;;5063140;28;20579;-84
2023/09/16 07:23:23;;;;;;;27.00;21.27;;;14.50;99.90;;;;;;5062630;28;20040;-83
2023/09/16 07:25:57;;;;;;;28.13;21.17;;;14.70;99.90;;;;;;5077278;28;20039;-84
2023/09/16 07:28:24;;;;;;;26.52;21.80;;;14.80;99.90;;;;;;5053734;28;20361;-83
2023/09/16 07:30:50;;;;;;;25.05;21.55;;;15.00;99.90;;;;;;5077448;28;20118;-83
2023/09/16 07:33:16;;;;;;;24.25;20.58;;;15.10;99.90;;;;;;5055374;28;20461;-83
2023/09/16 07:35:41;;;;;;;27.13;21.38;;;15.20;99.90;;;;;;5077367;28;20421;-83
2023/09/16 07:38:08;;;;;;;24.88;19.98;;;15.30;99.90;;;;;;5061332;28;20047;-83
2023/09/16 07:40:35;;;;;;;27.40;20.80;;;15.40;99.90;;;;;;5072021;28;20126;-83
2023/09/16 07:43:01;;;;;;;22.33;18.55;;;15.60;99.90;;;;;;5059611;28;20520;-84
2023/09/16 07:45:30;;;;;;;24.48;19.42;;;15.60;99.90;;;;;;5072323;28;20044;-83
2023/09/16 07:47:55;;;;;;;22.45;19.27;;;15.70;99.90;;;;;;5064245;28;20050;-83
2023/09/16 07:50:21;;;;;;;26.15;18.70;;;15.80;99.90;;;;;;5069959;28;20032;-83
2023/09/16 07:52:46;;;;;;;24.35;19.50;;;15.90;99.90;;;;;;5062125;28;20386;-83
2023/09/16 07:55:12;;;;;;;22.25;18.30;;;16.10;99.90;;;;;;5070784;28;20213;-83
2023/09/16 07:57:38;;;;;;;22.70;17.55;;;16.20;99.90;;;;;;5060808;28;20040;-83
2023/09/16 08:00:07;;;;;;;24.83;17.50;;;16.30;99.90;;;;;;5054793;28;20075;-83
2023/09/16 08:02:33;;;;;;;21.08;16.25;;;16.40;99.90;;;;;;5075066;28;20046;-83
2023/09/16 08:04:59;;;;;;;20.20;16.83;;;16.40;99.90;;;;;;5054783;28;20070;-83
2023/09/16 08:07:25;;;;;;;21.23;16.33;;;16.50;99.90;;;;;;5059984;28;20465;-83
2023/09/16 08:09:51;;;;;;;21.65;15.88;;;16.50;99.90;;;;;;5061631;28;20043;-84
2023/09/16 08:12:17;;;;;;;23.17;16.00;;;16.60;99.90;;;;;;5061576;28;20130;-84
2023/09/16 08:14:43;;;;;;;20.33;15.70;;;16.60;99.90;;;;;;5055068;28;20521;-83
2023/09/16 08:17:09;;;;;;;22.63;16.02;;;16.80;99.90;;;;;;5060926;28;20046;-84
2023/09/16 08:19:38;;;;;;;19.80;15.35;;;16.90;99.90;;;;;;5057458;28;20476;-83
2023/09/16 08:22:03;;;;;;;18.83;14.50;;;16.90;99.90;;;;;;5062135;28;20222;-83
2023/09/16 08:24:30;;;;;;;18.73;14.43;;;17.10;99.90;;;;;;5061834;28;20171;-83
2023/09/16 08:26:55;;;;;;;18.30;14.63;;;17.10;99.90;;;;;;5073287;28;20040;-84
2023/09/16 08:29:21;;;;;;;17.83;14.27;;;17.20;99.90;;;;;;5060494;28;20319;-83
2023/09/16 08:31:47;;;;;;;17.00;13.90;;;17.30;99.90;;;;;;5060528;28;20054;-83
2023/09/16 08:34:12;;;;;;;17.48;13.48;;;17.30;99.90;;;;;;5061283;28;20497;-83
2023/09/16 08:36:41;;;;;;;16.70;14.40;;;17.40;99.90;;;;;;5067619;28;20032;-83
2023/09/16 08:39:06;;;;;;;19.35;15.43;;;17.40;99.90;;;;;;5072054;28;20048;-83
2023/09/16 08:42:33;;;;;;;21.20;15.43;;;17.40;99.90;;;;;;5060663;28;20046;-83
2023/09/16 08:45:03;;;;;;;21.23;15.02;;;17.50;99.90;;;;;;4994605;28;20052;-83
2023/09/16 08:47:40;;;;;;;18.42;14.55;;;17.70;99.90;;;;;;5071957;28;20052;-83
2023/09/16 08:50:08;;;;;;;17.67;14.20;;;17.60;99.90;;;;;;5058215;28;20123;-83
2023/09/16 08:52:48;;;;;;;16.83;14.50;;;17.60;99.90;;;;;;5061870;28;20040;-83
2023/09/16 08:55:15;;;;;;;17.00;14.73;;;17.60;99.90;;;;;;5064355;28;20040;-83
2023/09/16 08:57:52;;;;;;;17.85;13.98;;;17.70;99.90;;;;;;5061022;28;20036;-84
2023/09/16 09:00:19;;;;;;;18.55;14.18;;;17.90;99.90;;;;;;5065629;28;20078;-84
2023/09/16 09:02:45;;;;;;;16.60;14.77;;;18.20;99.90;;;;;;5063859;28;20035;-83
2023/09/16 09:05:12;;;;;;;17.17;13.68;;;18.30;99.90;;;;;;5060702;28;20520;-84
2023/09/16 09:07:41;;;;;;;16.42;13.95;;;18.30;99.90;;;;;;5060686;28;20075;-84
2023/09/16 09:10:10;;;;;;;16.35;13.43;;;18.40;99.90;;;;;;5077222;28;20056;-84
2023/09/16 09:12:38;;;;;;;17.02;12.95;;;18.70;99.90;;;;;;5079278;28;20103;-84
2023/09/16 09:15:04;;;;;;;17.10;12.95;;;18.70;99.90;;;;;;5060758;28;20071;-84
2023/09/16 09:17:38;;;;;;;16.90;12.85;;;18.80;99.90;;;;;;5075493;28;20059;-84
2023/09/16 09:20:26;;;;;;;15.63;12.48;;;19.00;99.90;;;;;;5070814;28;20078;-84
2023/09/16 09:22:52;;;;;;;15.70;12.60;;;19.20;99.90;;;;;;5067346;28;20438;-84
2023/09/16 09:25:26;;;;;;;16.13;11.73;;;19.40;99.90;;;;;;5071566;28;20052;-84
2023/09/16 09:27:53;;;;;;;12.45;10.85;;;19.60;99.90;;;;;;5062209;28;20040;-84
2023/09/16 09:30:24;;;;;;;12.55;10.43;;;19.60;99.90;;;;;;5055275;28;20044;-84
2023/09/16 09:32:50;;;;;;;15.30;10.80;;;19.80;99.90;;;;;;5062016;28;20131;-84
2023/09/16 09:35:16;;;;;;;12.70;9.73;;;19.90;99.90;;;;;;5035964;28;20702;-83
2023/09/16 09:37:45;;;;;;;13.38;10.68;;;19.80;99.90;;;;;;5029222;28;20670;-84
2023/09/16 09:40:18;;;;;;;14.38;10.38;;;20.00;99.90;;;;;;5034077;28;20043;-83
2023/09/16 09:42:56;;;;;;;12.85;10.70;;;20.00;99.90;;;;;;5052157;28;20036;-84
2023/09/16 09:45:25;;;;;;;10.73;9.57;;;20.20;99.90;;;;;;5058267;28;20562;-84
2023/09/16 09:47:53;;;;;;;10.15;8.63;;;20.20;99.90;;;;;;5060908;28;20112;-84
2023/09/16 09:50:22;;;;;;;14.18;8.55;;;20.30;99.90;;;;;;5062376;28;20700;-84
2023/09/16 09:52:53;;;;;;;9.10;7.30;;;20.50;99.90;;;;;;5087686;27;20507;-85
2023/09/16 09:55:29;;;;;;;12.07;8.85;;;20.60;99.90;;;;;;5059916;28;20515;-84
2023/09/16 09:58:00;;;;;;;11.13;8.32;;;20.80;99.90;;;;;;5054429;28;20052;-84
2023/09/16 10:00:26;;;;;;;13.18;8.20;;;21.00;99.90;;;;;;5076258;28;20038;-84
2023/09/16 10:02:53;;;;;;;11.02;7.72;;;21.00;99.90;;;;;;5078438;28;20044;-84
2023/09/16 10:05:21;;;;;;;9.77;7.45;;;21.20;99.90;;;;;;5085160;28;20043;-84
2023/09/16 10:07:49;;;;;;;11.68;8.30;;;21.50;99.90;;;;;;5093813;28;20050;-84
2023/09/16 10:10:25;;;;;;;10.38;7.85;;;21.50;99.90;;;;;;5079560;28;20266;-84
2023/09/16 10:12:52;;;;;;;9.40;7.53;;;21.70;99.90;;;;;;5080869;28;20073;-84
2023/09/16 10:15:24;;;;;;;10.27;7.70;;;21.70;99.90;;;;;;5080631;28;20387;-83
2023/09/16 10:17:49;;;;;;;8.05;6.68;;;21.70;99.90;;;;;;5092238;28;20042;-84
2023/09/16 10:20:16;;;;;;;8.32;6.30;;;21.70;99.90;;;;;;5090267;28;20044;-84
2023/09/16 10:22:43;;;;;;;9.98;6.68;;;21.90;99.90;;;;;;5077730;28;20061;-84
2023/09/16 10:25:11;;;;;;;8.80;6.47;;;21.70;99.90;;;;;;5080881;28;20040;-84
2023/09/16 10:27:44;;;;;;;7.25;5.28;;;21.70;99.90;;;;;;5079917;28;20039;-85
2023/09/16 10:30:12;;;;;;;11.27;5.30;;;21.60;99.90;;;;;;5080045;28;20048;-83
2023/09/16 10:32:39;;;;;;;21.10;6.22;;;22.00;99.90;;;;;;5081724;28;20114;-83
2023/09/16 10:35:06;;;;;;;8.10;5.78;;;22.00;99.90;;;;;;5088531;28;20039;-83
2023/09/16 10:37:35;;;;;;;5.78;4.07;;;22.40;99.90;;;;;;5090809;28;20044;-83
2023/09/16 10:40:04;;;;;;;6.80;5.15;;;22.20;99.90;;;;;;5087909;28;20492;-84
2023/09/16 10:42:33;;;;;;;10.65;6.13;;;22.30;99.90;;;;;;5077630;28;20095;-84
2023/09/16 10:45:02;;;;;;;6.20;5.50;;;22.60;99.90;;;;;;5095544;28;20055;-83
2023/09/16 10:47:28;;;;;;;8.25;5.90;;;22.60;99.90;;;;;;5082760;28;20048;-84
2023/09/16 10:49:54;;;;;;;5.88;5.05;;;22.40;99.90;;;;;;5067560;28;20131;-84
2023/09/16 10:52:30;;;;;;;8.63;5.30;;;22.60;99.90;;;;;;5073710;28;20446;-84
2023/09/16 10:55:13;;;;;;;9.95;5.68;;;22.80;99.90;;;;;;5095825;28;20088;-84
2023/09/16 10:57:49;;;;;;;6.32;4.90;;;22.80;99.90;;;;;;5077236;28;20039;-84
2023/09/16 11:00:21;;;;;;;7.00;5.30;;;23.10;99.90;;;;;;5117862;27;20134;-84
2023/09/16 11:02:53;;;;;;;9.43;5.85;;;23.30;99.90;;;;;;5096417;28;20553;-84
2023/09/16 11:05:19;;;;;;;8.95;5.75;;;22.90;99.90;;;;;;5091388;28;20079;-84
2023/09/16 11:07:45;;;;;;;7.88;5.40;;;22.80;99.90;;;;;;5094620;28;20499;-84
2023/09/16 11:10:12;;;;;;;7.32;5.28;;;22.90;99.90;;;;;;5084358;28;20071;-83
2023/09/16 11:12:39;;;;;;;6.22;4.60;;;23.20;99.90;;;;;;5095373;28;20036;-84
2023/09/16 11:15:08;;;;;;;6.13;4.22;;;23.30;99.90;;;;;;5089435;28;20105;-84
2023/09/16 11:17:38;;;;;;;5.75;4.40;;;23.70;99.90;;;;;;5082010;28;20810;-83
2023/09/16 11:20:30;;;;;;;5.90;4.22;;;23.50;99.90;;;;;;5079017;28;20066;-83
2023/09/16 11:23:00;;;;;;;5.72;4.13;;;23.60;99.90;;;;;;5101524;28;20086;-83
2023/09/16 11:25:31;;;;;;;5.97;3.88;;;24.30;99.90;;;;;;5082730;28;20092;-84
2023/09/16 11:27:57;;;;;;;5.78;4.18;;;24.70;99.90;;;;;;5086800;28;20040;-84
2023/09/16 11:30:23;;;;;;;7.82;4.68;;;24.90;99.90;;;;;;5084813;28;20040;-84
2023/09/16 11:32:55;;;;;;;6.93;4.90;;;24.50;99.90;;;;;;5104471;28;20160;-83
2023/09/16 11:35:20;;;;;;;7.13;4.55;;;24.70;99.90;;;;;;5077966;28;20057;-85
2023/09/16 11:37:46;;;;;;;5.95;4.40;;;24.90;99.90;;;;;;5086148;28;20040;-85
2023/09/16 11:40:15;;;;;;;6.40;4.53;;;24.90;99.90;;;;;;5087424;28;20043;-84
2023/09/16 11:42:41;;;;;;;5.80;4.05;;;25.00;99.90;;;;;;5093052;28;20193;-84
2023/09/16 11:45:08;;;;;;;5.72;3.63;;;24.60;99.90;;;;;;5079552;28;20048;-85
2023/09/16 11:47:34;;;;;;;5.25;3.70;;;24.30;99.90;;;;;;5084628;28;20101;-85
2023/09/16 11:50:00;;;;;;;4.82;3.10;;;24.80;99.90;;;;;;5092365;28;20542;-85
2023/09/16 11:52:26;;;;;;;3.83;2.95;;;25.10;99.90;;;;;;5100931;28;20436;-84
2023/09/16 11:54:53;;;;;;;3.60;3.00;;;25.40;99.90;;;;;;5097797;28;20108;-84
2023/09/16 11:57:19;;;;;;;5.20;2.80;;;25.60;99.90;;;;;;5086573;28;20436;-85
2023/09/16 11:59:46;;;;;;;3.38;2.42;;;24.80;99.90;;;;;;5084366;28;20497;-84
2023/09/16 12:02:12;;;;;;;5.53;2.78;;;25.20;99.90;;;;;;5094481;28;20048;-84
2023/09/16 12:04:39;;;;;;;4.18;2.83;;;25.10;1.00;;;;;;5080422;28;20059;-85
2023/09/16 12:07:05;;;;;;;4.28;2.80;;;25.20;1.00;;;;;;5083225;28;20036;-84
2023/09/16 12:09:32;;;;;;;6.47;2.70;;;25.40;1.00;;;;;;5084302;28;20032;-85
2023/09/16 12:11:59;;;;;;;4.57;3.03;;;25.30;99.90;;;;;;5093780;28;20182;-85
2023/09/16 12:14:24;;;;;;;4.15;3.30;;;25.30;99.90;;;;;;5098615;28;20043;-85
2023/09/16 12:16:54;;;;;;;5.20;3.33;;;25.20;1.00;;;;;;5097067;28;20046;-84
2023/09/16 12:19:19;;;;;;;4.53;2.80;;;24.80;99.90;;;;;;5095052;28;20065;-86
2023/09/16 12:21:47;;;;;;;4.78;3.20;;;25.40;99.90;;;;;;5081321;28;20500;-84
2023/09/16 12:24:18;;;;;;;5.03;3.35;;;25.60;99.90;;;;;;5095630;28;20126;-84
2023/09/16 12:26:45;;;;;;;4.60;2.45;;;25.90;1.00;;;;;;5085024;28;20066;-85
2023/09/16 12:29:13;;;;;;;3.17;2.17;;;25.80;99.90;;;;;;5095677;28;20028;-85
2023/09/16 12:31:39;;;;;;;4.30;2.63;;;26.00;1.00;;;;;;5092710;28;20118;-84
2023/09/16 12:34:04;;;;;;;3.58;2.80;;;26.30;1.00;;;;;;5078560;28;20124;-86